createdAt,value
2022-12-24T00:01:54.231Z,96954.00
2022-12-24T00:05:55.248Z,96952.00
2022-12-24T00:09:56.362Z,96946.00
2022-12-24T00:13:57.618Z,96959.00
2022-12-24T00:17:58.871Z,96943.00
2022-12-24T00:21:59.931Z,96963.00
2022-12-24T00:26:01.487Z,96982.00
2022-12-24T00:30:03.020Z,96988.00
2022-12-24T00:34:04.254Z,96982.00
2022-12-24T00:38:06.149Z,96965.00
2022-12-24T00:42:07.270Z,96988.00
2022-12-24T00:46:08.305Z,96998.00
2022-12-24T00:50:09.801Z,96992.00
2022-12-24T00:54:12.757Z,97004.00
2022-12-24T00:58:13.967Z,97010.00
2022-12-24T01:02:15.134Z,97005.00
2022-12-24T01:06:20.057Z,97003.00
2022-12-24T01:10:21.165Z,97000.00
2022-12-24T01:14:22.312Z,97024.00
2022-12-24T01:18:24.187Z,97032.00
2022-12-24T01:22:25.170Z,97049.00
2022-12-24T01:26:26.354Z,97053.00
2022-12-24T01:30:27.596Z,97057.00
2022-12-24T01:34:28.771Z,97056.00
2022-12-24T01:38:29.878Z,97069.00
2022-12-24T01:42:49.645Z,97062.00
2022-12-24T01:46:54.565Z,97090.00
2022-12-24T01:50:59.586Z,97080.00
2022-12-24T01:55:13.665Z,97109.00
2022-12-24T01:59:17.578Z,97104.00
2022-12-24T02:03:19.449Z,97110.00
2022-12-24T02:07:21.000Z,97133.00
2022-12-24T02:11:22.217Z,97132.00
2022-12-24T02:15:23.777Z,97149.00
2022-12-24T02:19:37.879Z,97155.00
2022-12-24T02:24:02.252Z,97147.00
2022-12-24T02:28:23.544Z,97155.00
2022-12-24T02:32:28.473Z,97144.00
2022-12-24T02:36:39.415Z,97163.00
2022-12-24T02:40:44.339Z,97166.00
2022-12-24T02:44:55.456Z,97166.00
2022-12-24T02:48:58.545Z,97186.00
2022-12-24T02:52:59.660Z,97191.00
2022-12-24T02:57:13.676Z,97187.00
2022-12-24T03:01:52.150Z,97193.00
2022-12-24T03:06:00.199Z,97193.00
2022-12-24T03:10:23.282Z,97201.00
2022-12-24T03:14:26.167Z,97206.00
2022-12-24T03:18:29.541Z,97213.00
2022-12-24T03:22:33.473Z,97216.00
2022-12-24T03:26:35.961Z,97229.00
2022-12-24T03:30:40.966Z,97224.00
2022-12-24T03:34:42.103Z,97221.00
2022-12-24T03:38:43.565Z,97227.00
2022-12-24T03:42:44.727Z,97225.00
2022-12-24T03:46:45.730Z,97234.00
2022-12-24T03:50:46.747Z,97243.00
2022-12-24T03:54:47.794Z,97248.00
2022-12-24T03:58:49.187Z,97243.00
2022-12-24T04:02:50.533Z,97259.00
2022-12-24T04:06:51.639Z,97257.00
2022-12-24T04:10:52.712Z,97265.00
2022-12-24T04:14:53.651Z,97265.00
2022-12-24T04:18:54.759Z,97286.00
2022-12-24T04:22:55.719Z,97289.00
2022-12-24T04:26:56.946Z,97295.00
2022-12-24T04:31:07.253Z,97288.00
2022-12-24T04:35:09.168Z,97292.00
2022-12-24T04:39:10.239Z,97287.00
2022-12-24T04:43:11.188Z,97284.00
2022-12-24T04:47:12.177Z,97297.00
2022-12-24T04:51:14.880Z,97304.00
2022-12-24T04:55:17.101Z,97299.00
2022-12-24T04:59:18.019Z,97303.00
2022-12-24T05:03:19.334Z,97309.00
2022-12-24T05:07:20.246Z,97306.00
2022-12-24T05:11:21.877Z,97301.00
2022-12-24T05:15:22.847Z,97293.00
2022-12-24T05:19:24.106Z,97302.00
2022-12-24T05:23:44.033Z,97316.00
2022-12-24T05:27:51.029Z,97311.00
2022-12-24T05:31:49.319Z,97307.00
2022-12-24T05:35:51.717Z,97313.00
2022-12-24T05:39:58.767Z,97317.00
2022-12-24T05:44:00.397Z,97319.00
2022-12-24T05:48:01.396Z,97323.00
2022-12-24T05:52:02.685Z,97311.00
2022-12-24T05:56:09.685Z,97315.00
2022-12-24T06:00:11.278Z,97321.00
2022-12-24T06:04:12.786Z,97324.00
2022-12-24T06:08:13.781Z,97335.00
2022-12-24T06:12:14.891Z,97352.00
2022-12-24T06:16:19.079Z,97338.00
2022-12-24T06:20:20.344Z,97335.00
2022-12-24T06:24:21.745Z,97352.00
2022-12-24T06:28:23.106Z,97350.00
2022-12-24T06:32:24.221Z,97364.00
2022-12-24T06:36:26.311Z,97357.00
2022-12-24T06:40:27.678Z,97363.00
2022-12-24T06:44:28.640Z,97357.00
2022-12-24T06:48:29.728Z,97368.00
2022-12-24T06:52:30.867Z,97374.00
2022-12-24T06:56:31.887Z,97382.00
2022-12-24T07:00:33.115Z,97393.00
2022-12-24T07:04:34.114Z,97399.00
2022-12-24T07:08:35.755Z,97409.00
2022-12-24T07:12:36.879Z,97397.00
2022-12-24T07:16:38.230Z,97407.00
2022-12-24T07:20:39.330Z,97426.00
2022-12-24T07:24:40.731Z,97423.00
2022-12-24T07:28:41.822Z,97415.00
2022-12-24T07:32:43.040Z,97424.00
2022-12-24T07:36:44.162Z,97439.00
2022-12-24T07:40:45.255Z,97451.00
2022-12-24T07:44:46.341Z,97468.00
2022-12-24T07:48:47.303Z,97463.00
2022-12-24T07:52:48.413Z,97466.00
2022-12-24T07:56:49.777Z,97469.00
2022-12-24T08:00:58.861Z,97465.00
2022-12-24T08:05:00.072Z,97474.00
2022-12-24T08:09:01.448Z,97473.00
2022-12-24T08:13:03.158Z,97482.00
2022-12-24T08:17:04.317Z,97489.00
2022-12-24T08:21:09.232Z,97485.00
2022-12-24T08:25:10.587Z,97488.00
2022-12-24T08:29:11.873Z,97476.00
2022-12-24T08:33:12.820Z,97481.00
2022-12-24T08:37:13.837Z,97482.00
2022-12-24T08:41:14.897Z,97495.00
2022-12-24T08:45:16.214Z,97505.00
2022-12-24T08:49:17.387Z,97509.00
2022-12-24T08:53:18.566Z,97514.00
2022-12-24T08:57:20.183Z,97524.00
2022-12-24T09:01:21.363Z,97521.00
2022-12-24T09:05:22.583Z,97529.00
2022-12-24T09:09:23.902Z,97534.00
2022-12-24T09:13:25.045Z,97535.00
2022-12-24T09:17:26.136Z,97533.00
2022-12-24T09:21:27.303Z,97557.00
2022-12-24T09:25:28.429Z,97547.00
2022-12-24T09:29:30.714Z,97553.00
2022-12-24T09:33:34.707Z,97568.00
2022-12-24T09:37:37.396Z,97567.00
2022-12-24T09:41:57.373Z,97574.00
2022-12-24T09:46:20.326Z,97577.00
2022-12-24T09:50:36.778Z,97588.00
2022-12-24T09:54:49.282Z,97593.00
2022-12-24T09:58:50.641Z,97584.00
2022-12-24T10:02:52.237Z,97587.00
2022-12-24T10:07:06.237Z,97595.00
2022-12-24T10:11:20.425Z,97582.00
2022-12-24T10:15:31.487Z,97591.00
2022-12-24T10:19:45.118Z,97596.00
2022-12-24T10:23:50.330Z,97609.00
2022-12-24T10:27:54.497Z,97609.00
2022-12-24T10:32:02.452Z,97594.00
2022-12-24T10:36:11.746Z,97622.00
2022-12-24T10:40:29.988Z,97625.00
2022-12-24T10:44:32.899Z,97611.00
2022-12-24T10:48:53.089Z,97609.00
2022-12-24T10:52:57.911Z,97623.00
2022-12-24T10:57:01.831Z,97622.00
2022-12-24T11:01:03.332Z,97619.00
2022-12-24T11:05:08.113Z,97622.00
2022-12-24T11:09:18.794Z,97629.00
2022-12-24T11:13:37.943Z,97632.00
2022-12-24T11:17:35.587Z,97641.00
2022-12-24T11:21:39.464Z,97627.00
2022-12-24T11:25:43.025Z,97635.00
2022-12-24T11:29:44.177Z,97628.00
2022-12-24T11:33:48.183Z,97631.00
2022-12-24T11:38:02.547Z,97642.00
2022-12-24T11:42:03.868Z,97642.00
2022-12-24T11:46:08.822Z,97641.00
2022-12-24T11:50:22.042Z,97652.00
2022-12-24T11:54:29.406Z,97642.00
2022-12-24T11:58:37.108Z,97634.00
2022-12-24T12:02:40.892Z,97624.00
2022-12-24T12:06:46.055Z,97622.00
2022-12-24T12:10:50.524Z,97615.00
2022-12-24T12:14:55.443Z,97625.00
2022-12-24T12:19:02.969Z,97624.00
2022-12-24T12:23:26.003Z,97622.00
2022-12-24T12:27:39.688Z,97622.00
2022-12-24T12:31:44.132Z,97629.00
2022-12-24T12:35:47.273Z,97624.00
2022-12-24T12:39:48.450Z,97641.00
2022-12-24T12:44:11.562Z,97637.00
2022-12-24T12:48:53.615Z,97641.00
2022-12-24T12:53:12.494Z,97636.00
2022-12-24T12:57:17.404Z,97629.00
2022-12-24T13:01:43.519Z,97630.00
2022-12-24T13:06:04.056Z,97631.00
2022-12-24T13:10:27.161Z,97642.00
2022-12-24T13:14:38.157Z,97647.00
2022-12-24T13:18:46.254Z,97655.00
2022-12-24T13:22:50.973Z,97646.00
2022-12-24T13:27:05.286Z,97652.00
2022-12-24T13:31:24.028Z,97654.00
2022-12-24T13:35:37.177Z,97664.00
2022-12-24T13:40:07.246Z,97667.00
2022-12-24T13:44:15.511Z,97669.00
2022-12-24T13:48:20.484Z,97680.00
2022-12-24T13:52:25.527Z,97682.00
2022-12-24T13:56:29.154Z,97683.00
2022-12-24T14:00:34.051Z,97686.00
2022-12-24T14:04:37.167Z,97678.00
2022-12-24T14:08:44.810Z,97669.00
2022-12-24T14:12:49.231Z,97671.00
2022-12-24T14:16:51.082Z,97685.00
2022-12-24T14:20:54.523Z,97692.00
2022-12-24T14:25:18.903Z,97684.00
2022-12-24T14:29:25.164Z,97684.00
2022-12-24T14:33:34.892Z,97695.00
2022-12-24T14:37:36.434Z,97688.00
2022-12-24T14:41:59.474Z,97700.00
2022-12-24T14:46:28.731Z,97692.00
2022-12-24T14:50:55.988Z,97688.00
2022-12-24T14:54:56.969Z,97690.00
2022-12-24T14:59:00.379Z,97697.00
2022-12-24T15:03:01.445Z,97695.00
2022-12-24T15:07:04.591Z,97713.00
2022-12-24T15:11:09.523Z,97729.00
2022-12-24T15:15:16.428Z,97741.00
2022-12-24T15:19:33.400Z,97734.00
2022-12-24T15:23:36.823Z,97735.00
2022-12-24T15:27:38.826Z,97748.00
2022-12-24T15:31:40.009Z,97755.00
2022-12-24T15:35:51.322Z,97766.00
2022-12-24T15:40:08.052Z,97769.00
2022-12-24T15:44:12.795Z,97775.00
2022-12-24T15:48:26.671Z,97774.00
2022-12-24T15:52:27.848Z,97775.00
2022-12-24T15:56:43.141Z,97780.00
2022-12-24T16:00:46.186Z,97780.00
2022-12-24T16:04:47.350Z,97778.00
2022-12-24T16:08:51.405Z,97791.00
2022-12-24T16:12:53.092Z,97795.00
2022-12-24T16:16:56.020Z,97787.00
2022-12-24T16:20:57.192Z,97790.00
2022-12-24T16:24:59.616Z,97800.00
2022-12-24T16:29:01.189Z,97801.00
2022-12-24T16:33:02.348Z,97803.00
2022-12-24T16:37:03.950Z,97792.00
2022-12-24T16:41:06.558Z,97801.00
2022-12-24T16:45:09.784Z,97806.00
2022-12-24T16:49:17.516Z,97810.00
2022-12-24T16:53:21.543Z,97807.00
2022-12-24T16:57:23.660Z,97801.00
2022-12-24T17:01:25.049Z,97803.00
2022-12-24T17:05:26.551Z,97799.00
2022-12-24T17:09:27.603Z,97800.00
2022-12-24T17:13:28.670Z,97811.00
2022-12-24T17:17:29.829Z,97800.00
2022-12-24T17:21:31.964Z,97799.00
2022-12-24T17:25:35.577Z,97795.00
2022-12-24T17:29:36.797Z,97798.00
2022-12-24T17:33:38.320Z,97804.00
2022-12-24T17:37:39.386Z,97821.00
2022-12-24T17:41:41.213Z,97823.00
2022-12-24T17:45:42.387Z,97824.00
2022-12-24T17:49:43.410Z,97828.00
2022-12-24T17:53:45.319Z,97829.00
2022-12-24T17:57:47.144Z,97836.00
2022-12-24T18:01:48.451Z,97830.00
2022-12-24T18:05:50.079Z,97837.00
2022-12-24T18:09:51.224Z,97821.00
2022-12-24T18:13:54.163Z,97824.00
2022-12-24T18:17:55.787Z,97815.00
2022-12-24T18:21:57.085Z,97816.00
2022-12-24T18:26:05.838Z,97813.00
2022-12-24T18:30:08.344Z,97817.00
2022-12-24T18:34:12.817Z,97840.00
2022-12-24T18:38:14.564Z,97820.00
2022-12-24T18:42:16.142Z,97818.00
2022-12-24T18:46:20.324Z,97827.00
2022-12-24T18:50:21.775Z,97821.00
2022-12-24T18:54:22.944Z,97838.00
2022-12-24T18:58:24.513Z,97851.00
2022-12-24T19:02:25.501Z,97849.00
2022-12-24T19:06:27.296Z,97859.00
2022-12-24T19:10:28.615Z,97860.00
2022-12-24T19:14:29.955Z,97861.00
2022-12-24T19:18:31.471Z,97859.00
2022-12-24T19:22:32.820Z,97871.00
2022-12-24T19:26:33.925Z,97868.00
2022-12-24T19:30:41.442Z,97871.00
2022-12-24T19:34:42.711Z,97875.00
2022-12-24T19:38:44.373Z,97868.00
2022-12-24T19:42:47.402Z,97866.00
2022-12-24T19:46:48.561Z,97860.00
2022-12-24T19:50:49.604Z,97868.00
2022-12-24T19:54:50.746Z,97852.00
2022-12-24T19:58:52.368Z,97856.00
2022-12-24T20:02:54.733Z,97861.00
2022-12-24T20:06:59.947Z,97862.00
2022-12-24T20:11:00.704Z,97867.00
2022-12-24T20:15:01.780Z,97863.00
2022-12-24T20:19:06.072Z,97875.00
2022-12-24T20:23:08.225Z,97880.00
2022-12-24T20:27:09.495Z,97870.00
2022-12-24T20:31:16.730Z,97875.00
2022-12-24T20:35:17.802Z,97863.00
2022-12-24T20:39:18.932Z,97857.00
2022-12-24T20:43:24.245Z,97867.00
2022-12-24T20:47:23.324Z,97877.00
2022-12-24T20:51:26.574Z,97885.00
2022-12-24T20:55:27.792Z,97882.00
2022-12-24T20:59:28.819Z,97873.00
2022-12-24T21:03:30.031Z,97876.00
2022-12-24T21:07:31.296Z,97886.00
2022-12-24T21:11:52.196Z,97881.00
2022-12-24T21:15:53.096Z,97891.00
2022-12-24T21:19:54.114Z,97881.00
2022-12-24T21:23:55.335Z,97870.00
2022-12-24T21:27:56.681Z,97867.00
2022-12-24T21:31:57.769Z,97864.00
2022-12-24T21:35:59.371Z,97863.00
2022-12-24T21:40:00.502Z,97870.00
2022-12-24T21:44:01.876Z,97862.00
2022-12-24T21:48:05.284Z,97869.00
2022-12-24T21:52:06.239Z,97853.00
2022-12-24T21:56:11.514Z,97844.00
2022-12-24T22:00:22.254Z,97851.00
2022-12-24T22:04:25.677Z,97860.00
2022-12-24T22:08:44.992Z,97856.00
2022-12-24T22:12:46.580Z,97879.00
2022-12-24T22:16:47.835Z,97884.00
2022-12-24T22:20:49.925Z,97888.00
2022-12-24T22:24:50.925Z,97901.00
2022-12-24T22:28:51.943Z,97877.00
2022-12-24T22:32:53.143Z,97876.00
2022-12-24T22:36:55.312Z,97892.00
2022-12-24T22:40:56.547Z,97887.00
2022-12-24T22:44:58.082Z,97873.00
2022-12-24T22:48:59.202Z,97888.00
2022-12-24T22:53:00.294Z,97885.00
2022-12-24T22:57:01.244Z,97911.00
2022-12-24T23:01:02.846Z,97896.00
2022-12-24T23:05:04.525Z,97888.00
2022-12-24T23:09:08.185Z,97890.00
2022-12-24T23:13:30.408Z,97895.00
2022-12-24T23:17:31.478Z,97887.00
2022-12-24T23:21:33.338Z,97890.00
2022-12-24T23:25:34.824Z,97893.00
2022-12-24T23:29:35.838Z,97891.00
2022-12-24T23:33:37.076Z,97879.00
2022-12-24T23:37:38.176Z,97875.00
2022-12-24T23:41:39.448Z,97880.00
2022-12-24T23:45:46.013Z,97885.00
2022-12-24T23:49:47.730Z,97882.00
2022-12-24T23:53:50.475Z,97875.00
2022-12-24T23:57:51.651Z,97883.00
